| Date | Time | Temp. (oF) | Dew Point (oF) | Rel. Hum. (%) | Press. (in.) | Wind Dir. | Wind Speed (mph) | Hourly Rainfall (in.) |
|
|---|---|---|---|---|---|---|---|---|---|
| 1 | 11/11 | 00:00 | 28 | 20 | 72 | 30.31 | S | 1 | 0.00 |
| 2 | 11/10 | 23:00 | 28 | 19 | 69 | 30.29 | WSW | 3 | 0.00 |
| 3 | 11/10 | 22:00 | 28 | 18 | 66 | 30.28 | W | 1 | 0.00 |
| 4 | 11/10 | 21:00 | 29 | 17 | 61 | 30.25 | SW | 1 | 0.00 |
| 5 | 11/10 | 20:00 | 30 | 16 | 57 | 30.25 | WSW | 7 | 0.00 |
| 6 | 11/10 | 19:00 | 31 | 15 | 52 | 30.24 | SSW | 4 | 0.00 |
| 7 | 11/10 | 18:00 | 32 | 13 | 46 | 30.22 | W | 7 | 0.00 |
| 8 | 11/10 | 17:00 | 33 | 11 | 40 | 30.20 | SW | 5 | 0.00 |
| 9 | 11/10 | 16:00 | 36 | 12 | 38 | 30.16 | WSW | 4 | 0.00 |
| 10 | 11/10 | 15:00 | 37 | 13 | 37 | 30.12 | WSW | 6 | 0.00 |
| 11 | 11/10 | 14:00 | 39 | 14 | 37 | 30.11 | SW | 10 | 0.00 |
| 12 | 11/10 | 13:00 | 39 | 16 | 39 | 30.10 | WNW | 10 | 0.00 |
| 13 | 11/10 | 12:00 | 39 | 17 | 41 | 30.08 | W | 7 | 0.00 |
| 14 | 11/10 | 11:00 | 38 | 17 | 44 | 30.07 | WSW | 10 | 0.00 |
| 15 | 11/10 | 10:00 | 37 | 18 | 46 | 30.05 | WNW | 22 | 0.00 |
| 16 | 11/10 | 09:00 | 37 | 22 | 55 | 30.03 | SSE | 2 | 0.00 |
| 17 | 11/10 | 08:00 | 37 | 28 | 72 | 30.00 | WNW | 5 | 0.00 |
| 18 | 11/10 | 07:00 | 37 | 33 | 88 | 29.98 | SSW | 10 | 0.00 |
| 19 | 11/10 | 06:00 | 37 | 35 | 95 | 29.95 | W | 3 | 0.00 |
| 20 | 11/10 | 05:00 | 39 | 37 | 94 | 29.93 | WSW | 1 | 0.00 |
| 21 | 11/10 | 04:00 | 40 | 39 | 98 | 29.90 | WNW | 3 | 0.00 |
| 22 | 11/10 | 03:00 | 40 | 39 | 99 | 29.88 | SSW | 1 | 0.00 |
| 23 | 11/10 | 02:00 | 40 | 39 | 98 | 29.87 | WNW | 2 | 0.00 |
| 24 | 11/10 | 01:00 | 42 | 41 | 99 | 29.86 | W | 3 | 0.00 |